Mc Dowell, Virginia
Current Conditions -  °F | °C
As of 1:55 AM on Monday 22 Dec 2014 (Local Time) from KHSP Reporting Station
Haze Haze  
Wind Chill: 21°   Ceiling: 300
Heat Index: 28°   Visibility: 4mi
Dew Point: 28°   Wind: 7mph
Humidity: 100%   Direction: 140°SE
Pressure: 30.09"   Gusts: NA
Location:  38.3042°N, 79.5227°W
Report Text: KHSP 220655Z AUTO 14006KT 4SM BR OVC003 M02/M02 A3009 RMK AO2 T10201020
Loading
Personal Weather Stations






























Interactive Weather Map New forecast layout! Learn more

10-Day Weather Forecast

Advertisements
Track Severe Weather on mobile